createdAt,value
2023-05-09T00:02:09.132Z,85.30
2023-05-09T00:04:37.364Z,85.30
2023-05-09T00:07:05.745Z,85.20
2023-05-09T00:09:33.812Z,85.00
2023-05-09T00:12:04.243Z,85.20
2023-05-09T00:14:33.493Z,85.30
2023-05-09T00:17:01.658Z,85.30
2023-05-09T00:19:29.656Z,85.30
2023-05-09T00:21:57.688Z,85.40
2023-05-09T00:24:25.659Z,85.40
2023-05-09T00:26:53.675Z,85.50
2023-05-09T00:29:23.061Z,85.70
2023-05-09T00:31:51.082Z,85.80
2023-05-09T00:34:20.960Z,85.90
2023-05-09T00:36:49.861Z,86.00
2023-05-09T00:39:18.008Z,86.10
2023-05-09T00:41:45.944Z,86.20
2023-05-09T00:44:14.006Z,86.20
2023-05-09T00:46:43.434Z,86.20
2023-05-09T00:49:12.407Z,86.20
2023-05-09T00:51:41.879Z,86.20
2023-05-09T00:54:10.210Z,86.10
2023-05-09T00:56:38.684Z,86.10
2023-05-09T00:59:07.413Z,86.10
2023-05-09T01:01:35.592Z,86.00
2023-05-09T01:04:05.569Z,86.00
2023-05-09T01:06:39.833Z,86.30
2023-05-09T01:09:16.632Z,86.50
2023-05-09T01:11:50.488Z,86.60
2023-05-09T01:14:30.902Z,86.60
2023-05-09T01:17:06.682Z,86.80
2023-05-09T01:19:58.387Z,86.70
2023-05-09T01:22:30.954Z,86.90
2023-05-09T01:25:21.830Z,86.80
2023-05-09T01:27:58.621Z,86.90
2023-05-09T01:30:29.352Z,86.70
2023-05-09T01:33:01.702Z,86.70
2023-05-09T01:35:34.316Z,86.80
2023-05-09T01:38:05.757Z,86.70
2023-05-09T01:40:35.362Z,86.70
2023-05-09T01:43:07.035Z,86.50
2023-05-09T01:45:38.985Z,86.40
2023-05-09T01:48:09.424Z,86.60
2023-05-09T01:50:40.894Z,86.70
2023-05-09T01:53:11.508Z,86.70
2023-05-09T01:55:41.181Z,86.70
2023-05-09T01:58:10.710Z,86.70
2023-05-09T02:00:40.581Z,86.60
2023-05-09T02:03:09.506Z,86.60
2023-05-09T02:05:38.326Z,86.60
2023-05-09T02:08:07.090Z,86.50
2023-05-09T02:10:36.865Z,86.60
2023-05-09T02:13:06.811Z,86.60
2023-05-09T02:15:35.687Z,86.60
2023-05-09T02:18:05.390Z,86.60
2023-05-09T02:20:35.815Z,86.60
2023-05-09T02:23:04.148Z,86.50
2023-05-09T02:25:33.417Z,86.50
2023-05-09T02:28:02.587Z,86.80
2023-05-09T02:30:36.107Z,86.80
2023-05-09T02:33:09.388Z,87.00
2023-05-09T02:35:37.966Z,87.10
2023-05-09T02:38:06.558Z,87.00
2023-05-09T02:40:36.459Z,87.10
2023-05-09T02:43:04.984Z,87.10
2023-05-09T02:45:33.044Z,87.20
2023-05-09T02:48:01.112Z,87.20
2023-05-09T02:50:30.462Z,87.10
2023-05-09T02:52:58.693Z,87.00
2023-05-09T02:55:27.057Z,87.00
2023-05-09T02:58:09.404Z,87.10
2023-05-09T03:00:40.730Z,87.30
2023-05-09T03:03:10.032Z,87.20
2023-05-09T03:05:39.665Z,87.10
2023-05-09T03:08:07.897Z,87.10
2023-05-09T03:10:36.376Z,87.00
2023-05-09T03:13:04.938Z,86.90
2023-05-09T03:15:33.763Z,87.20
2023-05-09T03:18:01.965Z,87.20
2023-05-09T03:20:30.666Z,87.20
2023-05-09T03:23:00.270Z,87.30
2023-05-09T03:25:28.251Z,87.30
2023-05-09T03:27:56.377Z,87.50
2023-05-09T03:30:26.455Z,87.30
2023-05-09T03:32:55.964Z,87.40
2023-05-09T03:35:24.470Z,87.40
2023-05-09T03:37:52.506Z,87.40
2023-05-09T03:40:21.906Z,87.20
2023-05-09T03:42:56.633Z,87.20
2023-05-09T03:45:24.796Z,87.10
2023-05-09T03:47:53.192Z,87.20
2023-05-09T03:50:21.387Z,87.30
2023-05-09T03:52:50.455Z,87.20
2023-05-09T03:55:19.265Z,87.30
2023-05-09T03:57:48.549Z,87.60
2023-05-09T04:00:17.384Z,87.70
2023-05-09T04:02:58.256Z,87.80
2023-05-09T04:05:35.266Z,87.70
2023-05-09T04:08:04.652Z,87.70
2023-05-09T04:10:33.709Z,87.80
2023-05-09T04:13:03.836Z,87.80
2023-05-09T04:15:32.212Z,87.90
2023-05-09T04:18:00.250Z,87.90
2023-05-09T04:20:28.740Z,87.90
2023-05-09T04:22:57.216Z,87.90
2023-05-09T04:25:25.380Z,87.90
2023-05-09T04:27:53.436Z,87.80
2023-05-09T04:30:23.072Z,87.70
2023-05-09T04:32:51.151Z,87.60
2023-05-09T04:35:20.709Z,87.70
2023-05-09T04:37:50.340Z,87.70
2023-05-09T04:40:19.032Z,87.60
2023-05-09T04:42:57.233Z,87.50
2023-05-09T04:45:29.398Z,87.60
2023-05-09T04:47:59.537Z,87.50
2023-05-09T04:50:27.621Z,87.60
2023-05-09T04:52:55.584Z,87.70
2023-05-09T04:55:23.664Z,87.70
2023-05-09T04:57:52.700Z,87.70
2023-05-09T05:00:21.387Z,87.70
2023-05-09T05:02:51.632Z,87.80
2023-05-09T05:05:25.061Z,87.90
2023-05-09T05:07:54.157Z,87.70
2023-05-09T05:10:25.613Z,87.80
2023-05-09T05:13:01.931Z,87.70
2023-05-09T05:15:30.109Z,87.60
2023-05-09T05:18:00.299Z,87.70
2023-05-09T05:20:33.089Z,87.60
2023-05-09T05:23:01.556Z,87.80
2023-05-09T05:25:29.580Z,87.90
2023-05-09T05:27:58.669Z,88.10
2023-05-09T05:30:26.834Z,88.10
2023-05-09T05:32:54.982Z,88.20
2023-05-09T05:35:24.991Z,88.30
2023-05-09T05:37:54.193Z,88.40
2023-05-09T05:40:23.337Z,88.50
2023-05-09T05:42:53.207Z,88.50
2023-05-09T05:45:21.527Z,88.50
2023-05-09T05:47:53.316Z,88.50
2023-05-09T05:50:21.846Z,88.40
2023-05-09T05:52:51.201Z,88.20
2023-05-09T05:55:20.501Z,88.30
2023-05-09T05:57:48.657Z,88.40
2023-05-09T06:00:18.011Z,88.30
2023-05-09T06:02:50.666Z,88.20
2023-05-09T06:05:24.863Z,88.30
2023-05-09T06:07:54.742Z,88.40
2023-05-09T06:10:22.945Z,88.20
2023-05-09T06:12:50.963Z,87.90
2023-05-09T06:15:19.155Z,87.90
2023-05-09T06:17:50.184Z,87.80
2023-05-09T06:20:18.341Z,87.70
2023-05-09T06:22:46.589Z,87.60
2023-05-09T06:25:16.270Z,87.50
2023-05-09T06:27:44.693Z,87.30
2023-05-09T06:30:24.665Z,87.10
2023-05-09T06:32:54.165Z,86.80
2023-05-09T06:35:22.348Z,86.70
2023-05-09T06:37:50.447Z,86.70
2023-05-09T06:40:20.038Z,86.70
2023-05-09T06:42:48.058Z,86.60
2023-05-09T06:45:17.003Z,86.70
2023-05-09T06:47:45.526Z,86.80
2023-05-09T06:50:13.672Z,87.00
2023-05-09T06:52:41.693Z,86.80
2023-05-09T06:55:11.130Z,86.80
2023-05-09T06:57:41.239Z,86.70
2023-05-09T07:00:10.834Z,86.70
2023-05-09T07:02:41.825Z,86.50
2023-05-09T07:05:10.851Z,86.50
2023-05-09T07:07:38.964Z,86.00
2023-05-09T07:10:12.090Z,85.80
2023-05-09T07:12:42.047Z,85.90
2023-05-09T07:15:11.478Z,85.70
2023-05-09T07:17:39.677Z,85.50
2023-05-09T07:20:08.830Z,85.40
2023-05-09T07:22:37.758Z,85.20
2023-05-09T07:25:08.668Z,85.10
2023-05-09T07:27:36.808Z,85.10
2023-05-09T07:30:07.596Z,85.40
2023-05-09T07:32:35.911Z,85.10
2023-05-09T07:35:04.109Z,85.20
2023-05-09T07:37:32.123Z,84.90
2023-05-09T07:40:00.401Z,84.80
2023-05-09T07:42:30.225Z,84.60
2023-05-09T07:44:59.079Z,84.60
2023-05-09T07:47:28.564Z,84.40
2023-05-09T07:49:56.677Z,84.10
2023-05-09T07:52:24.835Z,83.50
2023-05-09T07:54:52.838Z,83.40
2023-05-09T07:57:20.908Z,83.30
2023-05-09T07:59:48.914Z,83.00
2023-05-09T08:02:17.017Z,82.80
2023-05-09T08:04:48.828Z,82.40
2023-05-09T08:07:17.393Z,82.00
2023-05-09T08:09:45.563Z,81.90
2023-05-09T08:12:13.576Z,81.60
2023-05-09T08:14:41.613Z,81.20
2023-05-09T08:17:09.677Z,81.20
2023-05-09T08:19:37.726Z,80.80
2023-05-09T08:22:07.123Z,80.80
2023-05-09T08:24:35.164Z,80.90
2023-05-09T08:27:03.772Z,81.70
2023-05-09T08:29:31.920Z,81.30
2023-05-09T08:31:59.919Z,81.50
2023-05-09T08:34:28.084Z,82.20
2023-05-09T08:36:56.090Z,82.20
2023-05-09T08:39:25.391Z,81.80
2023-05-09T08:41:55.783Z,81.20
2023-05-09T08:44:24.558Z,81.10
2023-05-09T08:46:55.025Z,80.60
2023-05-09T08:49:23.932Z,80.80
2023-05-09T08:51:52.968Z,80.50
2023-05-09T08:54:22.912Z,80.60
2023-05-09T08:56:52.839Z,79.90
2023-05-09T08:59:21.066Z,79.50
2023-05-09T09:01:51.607Z,79.70
2023-05-09T09:04:19.747Z,78.90
2023-05-09T09:06:48.143Z,78.40
2023-05-09T09:09:17.414Z,78.00
2023-05-09T09:11:46.390Z,77.30
2023-05-09T09:14:25.471Z,77.60
2023-05-09T09:16:55.609Z,76.60
2023-05-09T09:19:28.137Z,76.40
2023-05-09T09:21:59.689Z,76.30
2023-05-09T09:24:27.677Z,75.50
2023-05-09T09:26:55.659Z,74.80
2023-05-09T09:29:28.671Z,74.40
2023-05-09T09:31:56.841Z,74.60
2023-05-09T09:34:25.116Z,74.30
2023-05-09T09:36:53.105Z,74.10
2023-05-09T09:39:21.983Z,74.00
2023-05-09T09:41:50.418Z,73.70
2023-05-09T09:44:19.783Z,73.10
2023-05-09T09:46:51.319Z,72.40
2023-05-09T09:49:21.512Z,73.50
2023-05-09T09:51:53.547Z,72.50
2023-05-09T09:54:23.085Z,71.90
2023-05-09T09:56:54.278Z,71.70
2023-05-09T09:59:24.897Z,72.10
2023-05-09T10:01:59.353Z,71.70
2023-05-09T10:04:29.577Z,70.90
2023-05-09T10:06:59.688Z,71.50
2023-05-09T10:09:28.814Z,70.10
2023-05-09T10:11:58.129Z,69.00
2023-05-09T10:14:27.379Z,68.60
2023-05-09T10:16:58.041Z,68.90
2023-05-09T10:19:29.650Z,69.30
2023-05-09T10:21:59.665Z,68.40
2023-05-09T10:24:30.657Z,68.40
2023-05-09T10:27:05.240Z,67.40
2023-05-09T10:29:36.515Z,67.70
2023-05-09T10:32:13.178Z,67.90
2023-05-09T10:34:43.572Z,68.80
2023-05-09T10:37:12.612Z,67.60
2023-05-09T10:39:41.196Z,67.70
2023-05-09T10:42:17.608Z,66.80
2023-05-09T10:44:46.490Z,66.70
2023-05-09T10:47:15.896Z,67.50
2023-05-09T10:49:44.165Z,67.70
2023-05-09T10:52:12.482Z,68.00
2023-05-09T10:54:40.450Z,67.10
2023-05-09T10:57:10.729Z,67.00
2023-05-09T10:59:42.489Z,67.10
2023-05-09T11:02:14.856Z,66.70
2023-05-09T11:04:44.126Z,66.30
2023-05-09T11:07:25.619Z,66.30
2023-05-09T11:10:07.729Z,66.70
2023-05-09T11:12:35.790Z,66.00
2023-05-09T11:15:09.698Z,66.70
2023-05-09T11:17:39.607Z,66.10
2023-05-09T11:20:09.648Z,66.30
2023-05-09T11:22:42.318Z,66.30
2023-05-09T11:25:11.581Z,66.20
2023-05-09T11:27:42.419Z,66.70
2023-05-09T11:30:15.400Z,67.60
2023-05-09T11:32:45.826Z,67.90
2023-05-09T11:35:16.425Z,67.70
2023-05-09T11:37:49.756Z,68.10
2023-05-09T11:40:19.356Z,67.40
2023-05-09T11:42:49.748Z,67.40
2023-05-09T11:45:19.358Z,67.00
2023-05-09T11:47:48.430Z,66.70
2023-05-09T11:50:17.916Z,67.10
2023-05-09T11:52:47.335Z,66.40
2023-05-09T11:55:16.782Z,66.30
2023-05-09T11:57:47.175Z,67.30
2023-05-09T12:00:17.462Z,67.30
2023-05-09T12:02:47.907Z,67.10
2023-05-09T12:05:18.639Z,66.90
2023-05-09T12:07:47.653Z,67.50
2023-05-09T12:10:16.963Z,67.30
2023-05-09T12:12:46.402Z,66.30
2023-05-09T12:15:15.537Z,65.70
2023-05-09T12:17:47.245Z,65.80
2023-05-09T12:20:17.011Z,64.90
2023-05-09T12:22:45.191Z,64.40
2023-05-09T12:25:13.777Z,64.30
2023-05-09T12:27:42.764Z,64.70
2023-05-09T12:30:14.150Z,64.90
2023-05-09T12:32:43.587Z,64.80
2023-05-09T12:35:13.101Z,64.30
2023-05-09T12:37:41.259Z,65.30
2023-05-09T12:40:15.174Z,65.00
2023-05-09T12:42:46.467Z,64.70
2023-05-09T12:45:15.795Z,64.40
2023-05-09T12:47:45.422Z,64.70
2023-05-09T12:50:14.963Z,64.20
2023-05-09T12:52:54.521Z,64.60
2023-05-09T12:55:30.254Z,64.20
2023-05-09T12:57:59.963Z,64.90
2023-05-09T13:00:28.208Z,64.20
2023-05-09T13:02:56.845Z,64.10
2023-05-09T13:05:26.389Z,64.00
2023-05-09T13:07:58.093Z,64.40
2023-05-09T13:10:28.577Z,65.60
2023-05-09T13:12:57.278Z,64.90
2023-05-09T13:15:26.810Z,64.90
2023-05-09T13:17:55.446Z,64.60
2023-05-09T13:20:23.645Z,64.30
2023-05-09T13:22:53.077Z,64.40
2023-05-09T13:25:21.393Z,65.40
2023-05-09T13:27:49.405Z,65.50
2023-05-09T13:30:18.239Z,65.70
2023-05-09T13:32:47.468Z,65.80
2023-05-09T13:35:17.340Z,66.30
2023-05-09T13:37:45.470Z,65.80
2023-05-09T13:40:15.767Z,65.80
2023-05-09T13:42:44.020Z,65.90
2023-05-09T13:45:12.795Z,65.60
2023-05-09T13:47:41.345Z,65.80
2023-05-09T13:50:10.167Z,65.70
2023-05-09T13:52:38.200Z,64.70
2023-05-09T13:55:07.013Z,64.70
2023-05-09T13:57:36.402Z,65.20
2023-05-09T14:00:05.147Z,65.30
2023-05-09T14:02:40.599Z,65.00
2023-05-09T14:05:09.369Z,65.30
2023-05-09T14:07:37.496Z,65.00
2023-05-09T14:10:16.177Z,65.10
2023-05-09T14:12:47.195Z,65.50
2023-05-09T14:15:16.192Z,66.20
2023-05-09T14:17:44.452Z,67.10
2023-05-09T14:20:15.626Z,66.10
2023-05-09T14:22:43.856Z,66.20
2023-05-09T14:25:11.837Z,65.80
2023-05-09T14:27:40.139Z,65.50
2023-05-09T14:30:10.844Z,65.70
2023-05-09T14:32:38.852Z,65.90
2023-05-09T14:35:07.814Z,66.90
2023-05-09T14:37:35.914Z,70.40
2023-05-09T14:40:05.622Z,74.20
2023-05-09T14:42:33.898Z,77.30
2023-05-09T14:45:01.876Z,79.60
2023-05-09T14:47:31.259Z,81.60
2023-05-09T14:49:59.679Z,82.90
2023-05-09T14:52:28.697Z,84.00
2023-05-09T14:54:56.771Z,84.40
2023-05-09T14:57:24.763Z,85.20
2023-05-09T14:59:52.925Z,85.90
2023-05-09T15:02:20.985Z,86.50
2023-05-09T15:04:50.453Z,86.70
2023-05-09T15:07:18.723Z,88.20
2023-05-09T15:09:46.752Z,89.50
2023-05-09T15:12:15.001Z,90.40
2023-05-09T15:14:43.109Z,90.70
2023-05-09T15:17:11.147Z,91.10
2023-05-09T15:19:39.704Z,90.80
2023-05-09T15:22:09.578Z,90.50
2023-05-09T15:24:37.812Z,90.10
2023-05-09T15:27:05.830Z,89.60
2023-05-09T15:29:33.820Z,92.50
2023-05-09T15:32:01.858Z,95.40
2023-05-09T15:34:29.785Z,95.50
2023-05-09T15:36:57.733Z,95.40
2023-05-09T15:39:27.246Z,94.90
2023-05-09T15:41:55.217Z,97.50
2023-05-09T15:44:23.323Z,97.00
2023-05-09T15:46:51.322Z,98.20
2023-05-09T15:49:19.310Z,97.70
2023-05-09T15:51:47.290Z,97.40
2023-05-09T15:54:15.331Z,97.90
2023-05-09T15:56:44.810Z,97.90
2023-05-09T15:59:12.853Z,98.60
2023-05-09T16:01:40.954Z,98.80
2023-05-09T16:04:09.194Z,99.20
2023-05-09T16:06:37.871Z,98.70
2023-05-09T16:09:06.758Z,98.30
2023-05-09T16:11:34.778Z,97.80
2023-05-09T16:14:05.471Z,97.20
2023-05-09T16:16:33.819Z,97.40
2023-05-09T16:19:02.690Z,96.80
2023-05-09T16:21:33.030Z,96.60
2023-05-09T16:24:02.824Z,97.40
2023-05-09T16:26:31.048Z,97.40
2023-05-09T16:28:59.223Z,97.20
2023-05-09T16:31:28.644Z,97.60
2023-05-09T16:33:56.858Z,97.20
2023-05-09T16:36:24.949Z,96.90
2023-05-09T16:38:53.111Z,96.70
2023-05-09T16:41:21.313Z,97.30
2023-05-09T16:43:49.428Z,96.90
2023-05-09T16:46:17.603Z,97.60
2023-05-09T16:48:47.102Z,96.60
2023-05-09T16:51:15.039Z,96.60
2023-05-09T16:53:43.488Z,96.30
2023-05-09T16:56:11.512Z,96.80
2023-05-09T16:58:39.779Z,96.80
2023-05-09T17:01:07.795Z,96.50
2023-05-09T17:03:35.896Z,96.00
2023-05-09T17:06:05.523Z,95.60
2023-05-09T17:08:33.605Z,95.40
2023-05-09T17:11:01.669Z,95.70
2023-05-09T17:13:29.655Z,95.70
2023-05-09T17:15:57.735Z,95.80
2023-05-09T17:18:36.982Z,95.40
2023-05-09T17:21:07.661Z,95.70
2023-05-09T17:23:35.661Z,95.70
2023-05-09T17:26:03.814Z,95.70
2023-05-09T17:28:31.856Z,95.80
2023-05-09T17:30:59.982Z,95.70
2023-05-09T17:33:28.078Z,95.50
2023-05-09T17:35:57.423Z,95.60
2023-05-09T17:38:26.754Z,95.60
2023-05-09T17:40:54.783Z,95.40
2023-05-09T17:43:24.042Z,95.10
2023-05-09T17:45:52.769Z,94.60
2023-05-09T17:48:21.200Z,94.70
2023-05-09T17:50:49.257Z,94.80
2023-05-09T17:53:17.548Z,94.60
2023-05-09T17:55:47.064Z,94.60
2023-05-09T17:58:15.805Z,94.80
2023-05-09T18:00:44.628Z,94.80
2023-05-09T18:03:12.788Z,94.50
2023-05-09T18:05:40.939Z,94.30
2023-05-09T18:08:08.946Z,94.20
2023-05-09T18:10:37.035Z,94.40
2023-05-09T18:13:06.634Z,94.40
2023-05-09T18:15:37.992Z,93.70
2023-05-09T18:18:06.709Z,93.30
2023-05-09T18:20:34.733Z,91.90
2023-05-09T18:23:03.040Z,94.00
2023-05-09T18:25:31.203Z,95.70
2023-05-09T18:27:59.342Z,97.00
2023-05-09T18:30:28.871Z,97.80
2023-05-09T18:33:00.380Z,98.20
2023-05-09T18:35:28.695Z,99.60
2023-05-09T18:37:56.804Z,99.60
2023-05-09T18:40:25.799Z,99.60
2023-05-09T18:42:54.190Z,99.60
2023-05-09T18:45:25.979Z,99.60
2023-05-09T18:47:55.864Z,99.60
2023-05-09T18:50:24.245Z,99.60
2023-05-09T18:52:52.353Z,99.60
2023-05-09T18:55:21.897Z,99.60
2023-05-09T18:57:50.296Z,99.60
2023-05-09T19:00:18.525Z,99.60
2023-05-09T19:02:46.637Z,99.60
2023-05-09T19:05:15.962Z,99.60
2023-05-09T19:07:43.995Z,99.60
2023-05-09T19:10:13.242Z,99.60
2023-05-09T19:12:41.576Z,99.60
2023-05-09T19:15:11.211Z,99.60
2023-05-09T19:17:39.290Z,99.60
2023-05-09T19:20:08.545Z,99.60
2023-05-09T19:22:39.154Z,99.60
2023-05-09T19:25:07.832Z,99.60
2023-05-09T19:27:35.962Z,99.60
2023-05-09T19:30:04.326Z,99.60
2023-05-09T19:32:32.534Z,99.60
2023-05-09T19:35:00.615Z,99.60
2023-05-09T19:37:28.590Z,99.60
2023-05-09T19:39:58.306Z,99.60
2023-05-09T19:42:26.513Z,99.60
2023-05-09T19:44:54.539Z,99.60
2023-05-09T19:47:22.552Z,99.60
2023-05-09T19:49:50.856Z,99.60
2023-05-09T19:52:19.256Z,99.60
2023-05-09T19:54:47.223Z,99.60
2023-05-09T19:57:16.657Z,99.60
2023-05-09T19:59:44.605Z,99.60
2023-05-09T20:02:12.554Z,99.60
2023-05-09T20:04:46.478Z,99.60
2023-05-09T20:07:14.755Z,99.60
2023-05-09T20:09:42.886Z,99.60
2023-05-09T20:12:11.597Z,99.60
2023-05-09T20:14:41.005Z,99.60
2023-05-09T20:17:09.077Z,99.60
2023-05-09T20:19:37.083Z,99.60
2023-05-09T20:22:05.161Z,99.60
2023-05-09T20:24:33.213Z,99.60
2023-05-09T20:27:02.560Z,99.60
2023-05-09T20:29:30.663Z,99.60
2023-05-09T20:32:00.058Z,99.60
2023-05-09T20:34:28.411Z,99.60
2023-05-09T20:36:58.025Z,99.60
2023-05-09T20:39:26.833Z,99.60
2023-05-09T20:41:55.782Z,99.60
2023-05-09T20:44:23.962Z,99.60
2023-05-09T20:46:52.828Z,99.60
2023-05-09T20:49:22.747Z,99.60
2023-05-09T20:51:50.983Z,99.60
2023-05-09T20:54:19.160Z,99.60
2023-05-09T20:56:47.180Z,99.60
2023-05-09T20:59:15.400Z,99.60
2023-05-09T21:01:43.940Z,99.60
2023-05-09T21:04:12.024Z,99.60
2023-05-09T21:06:41.467Z,99.60
2023-05-09T21:09:10.036Z,99.60
2023-05-09T21:11:38.536Z,99.60
2023-05-09T21:14:07.199Z,99.60
2023-05-09T21:16:35.531Z,99.60
2023-05-09T21:19:05.217Z,99.60
2023-05-09T21:21:33.711Z,99.60
2023-05-09T21:24:08.743Z,99.60
2023-05-09T21:26:36.983Z,99.60
2023-05-09T21:29:05.324Z,99.60
2023-05-09T21:31:33.530Z,99.60
2023-05-09T21:34:01.852Z,99.60
2023-05-09T21:36:29.770Z,99.60
2023-05-09T21:38:57.727Z,99.60
2023-05-09T21:41:27.943Z,99.60
2023-05-09T21:43:56.058Z,99.60
2023-05-09T21:46:24.054Z,99.60
2023-05-09T21:48:52.119Z,99.60
2023-05-09T21:51:20.265Z,99.60
2023-05-09T21:53:48.176Z,99.60
2023-05-09T21:56:16.101Z,99.60
2023-05-09T21:58:45.341Z,99.60
2023-05-09T22:01:13.292Z,99.60
2023-05-09T22:03:41.490Z,99.60
2023-05-09T22:06:09.599Z,99.60
2023-05-09T22:08:37.607Z,99.60
2023-05-09T22:11:05.806Z,99.60
2023-05-09T22:13:33.811Z,99.60
2023-05-09T22:16:03.852Z,99.60
2023-05-09T22:18:32.209Z,99.60
2023-05-09T22:21:00.555Z,99.60
2023-05-09T22:23:28.620Z,99.60
2023-05-09T22:25:56.625Z,99.60
2023-05-09T22:28:24.623Z,99.60
2023-05-09T22:30:52.646Z,99.60
2023-05-09T22:33:22.048Z,99.60
2023-05-09T22:35:49.995Z,99.60
2023-05-09T22:38:18.176Z,99.60
2023-05-09T22:40:46.241Z,99.60
2023-05-09T22:43:14.435Z,99.60
2023-05-09T22:45:42.494Z,99.60
2023-05-09T22:48:10.841Z,99.60
2023-05-09T22:50:40.224Z,99.60
2023-05-09T22:53:08.241Z,99.60
2023-05-09T22:55:36.438Z,99.60
2023-05-09T22:58:04.690Z,99.60
2023-05-09T23:00:32.765Z,99.60
2023-05-09T23:03:03.092Z,99.60
2023-05-09T23:05:31.500Z,99.60
2023-05-09T23:08:00.903Z,99.60
2023-05-09T23:10:28.897Z,99.60
2023-05-09T23:12:56.982Z,99.60
2023-05-09T23:15:24.989Z,99.60
2023-05-09T23:17:53.056Z,99.60
2023-05-09T23:20:21.161Z,99.60
2023-05-09T23:22:49.208Z,99.60
2023-05-09T23:25:18.596Z,99.60
2023-05-09T23:27:46.873Z,99.60
2023-05-09T23:30:15.302Z,99.60
2023-05-09T23:32:44.265Z,99.60
2023-05-09T23:35:12.299Z,99.60
2023-05-09T23:37:40.378Z,99.60
2023-05-09T23:40:09.659Z,99.60
2023-05-09T23:42:39.014Z,99.60
2023-05-09T23:45:08.034Z,99.60
2023-05-09T23:47:36.122Z,99.60
2023-05-09T23:50:04.366Z,99.60
2023-05-09T23:52:32.680Z,99.60
2023-05-09T23:55:00.646Z,99.60
2023-05-09T23:57:28.639Z,99.60
2023-05-09T23:59:58.036Z,99.60
